createdAt,value
2022-08-21T00:00:29.369Z,65.33
2022-08-21T00:03:02.795Z,65.36
2022-08-21T00:05:34.791Z,65.66
2022-08-21T00:08:04.930Z,65.92
2022-08-21T00:10:35.154Z,65.69
2022-08-21T00:13:05.373Z,66.07
2022-08-21T00:15:40.609Z,65.74
2022-08-21T00:18:13.338Z,65.98
2022-08-21T00:20:44.834Z,65.90
2022-08-21T00:23:15.743Z,65.77
2022-08-21T00:25:46.891Z,66.13
2022-08-21T00:28:17.652Z,65.98
2022-08-21T00:30:50.377Z,66.34
2022-08-21T00:33:20.553Z,65.98
2022-08-21T00:35:50.688Z,65.87
2022-08-21T00:38:20.838Z,66.58
2022-08-21T00:40:55.485Z,66.03
2022-08-21T00:43:31.473Z,66.46
2022-08-21T00:46:04.787Z,65.95
2022-08-21T00:48:36.376Z,66.08
2022-08-21T00:51:11.031Z,66.12
2022-08-21T00:53:44.353Z,66.05
2022-08-21T00:56:21.142Z,66.05
2022-08-21T00:58:54.856Z,66.32
2022-08-21T01:01:31.693Z,66.46
2022-08-21T01:04:02.650Z,66.35
2022-08-21T01:06:33.210Z,66.63
2022-08-21T01:09:03.311Z,66.47
2022-08-21T01:11:34.008Z,66.46
2022-08-21T01:14:04.744Z,66.78
2022-08-21T01:16:37.662Z,66.71
2022-08-21T01:19:08.134Z,66.34
2022-08-21T01:21:40.970Z,66.50
2022-08-21T01:24:14.823Z,66.85
2022-08-21T01:26:46.333Z,66.52
2022-08-21T01:29:20.589Z,66.78
2022-08-21T01:31:50.742Z,66.98
2022-08-21T01:34:20.971Z,66.73
2022-08-21T01:36:53.866Z,67.19
2022-08-21T01:39:24.293Z,67.16
2022-08-21T01:41:54.475Z,66.99
2022-08-21T01:44:25.722Z,67.34
2022-08-21T01:47:01.664Z,67.18
2022-08-21T01:49:31.890Z,67.24
2022-08-21T01:52:04.976Z,67.05
2022-08-21T01:54:35.626Z,67.30
2022-08-21T01:57:06.962Z,67.11
2022-08-21T01:59:38.054Z,67.31
2022-08-21T02:02:08.907Z,67.24
2022-08-21T02:04:39.185Z,67.22
2022-08-21T02:07:12.291Z,67.54
2022-08-21T02:09:43.613Z,67.37
2022-08-21T02:12:14.139Z,67.45
2022-08-21T02:14:44.306Z,67.62
2022-08-21T02:17:15.189Z,67.43
2022-08-21T02:19:45.273Z,67.00
2022-08-21T02:22:18.028Z,67.62
2022-08-21T02:24:54.371Z,67.48
2022-08-21T02:27:27.272Z,67.72
2022-08-21T02:29:59.864Z,67.20
2022-08-21T02:32:30.072Z,67.70
2022-08-21T02:35:00.219Z,67.74
2022-08-21T02:37:32.969Z,67.84
2022-08-21T02:40:03.976Z,68.47
2022-08-21T02:42:34.221Z,68.74
2022-08-21T02:45:04.286Z,68.67
2022-08-21T02:47:34.840Z,69.32
2022-08-21T02:50:05.164Z,69.52
2022-08-21T02:52:38.084Z,69.22
2022-08-21T02:55:09.037Z,69.24
2022-08-21T02:57:39.133Z,69.69
2022-08-21T03:00:11.858Z,69.59
2022-08-21T03:02:41.955Z,70.02
2022-08-21T03:05:13.781Z,69.80
2022-08-21T03:07:47.497Z,69.97
2022-08-21T03:10:19.958Z,69.90
2022-08-21T03:12:50.269Z,70.48
2022-08-21T03:15:23.454Z,70.89
2022-08-21T03:17:55.692Z,70.81
2022-08-21T03:20:28.000Z,70.48
2022-08-21T03:23:01.087Z,70.92
2022-08-21T03:25:40.432Z,70.41
2022-08-21T03:28:14.279Z,70.56
2022-08-21T03:30:45.150Z,70.89
2022-08-21T03:33:15.817Z,71.11
2022-08-21T03:35:47.573Z,71.58
2022-08-21T03:38:25.905Z,71.36
2022-08-21T03:40:56.933Z,71.55
2022-08-21T03:43:27.715Z,71.81
2022-08-21T03:46:01.468Z,72.05
2022-08-21T03:48:31.663Z,72.04
2022-08-21T03:51:01.969Z,71.91
2022-08-21T03:53:35.142Z,71.71
2022-08-21T03:56:05.329Z,71.50
2022-08-21T03:58:35.516Z,71.67
2022-08-21T04:01:07.376Z,71.11
2022-08-21T04:03:39.750Z,71.76
2022-08-21T04:06:11.248Z,71.98
2022-08-21T04:08:44.289Z,72.22
2022-08-21T04:11:15.888Z,72.33
2022-08-21T04:13:46.255Z,71.61
2022-08-21T04:16:16.841Z,71.43
2022-08-21T04:18:46.925Z,71.32
2022-08-21T04:21:17.044Z,70.99
2022-08-21T04:23:49.734Z,70.45
2022-08-21T04:26:19.953Z,70.52
2022-08-21T04:28:50.072Z,70.32
2022-08-21T04:31:20.169Z,70.57
2022-08-21T04:33:50.261Z,70.46
2022-08-21T04:36:20.900Z,70.11
2022-08-21T04:38:57.328Z,69.39
2022-08-21T04:41:28.119Z,69.89
2022-08-21T04:43:59.054Z,69.97
2022-08-21T04:46:29.263Z,70.71
2022-08-21T04:49:00.113Z,71.31
2022-08-21T04:51:36.039Z,71.39
2022-08-21T04:54:13.169Z,70.72
2022-08-21T04:56:49.334Z,71.02
2022-08-21T04:59:22.705Z,72.09
2022-08-21T05:01:55.346Z,72.50
2022-08-21T05:04:28.758Z,72.79
2022-08-21T05:07:03.916Z,72.68
2022-08-21T05:09:38.339Z,72.86
2022-08-21T05:12:09.063Z,73.08
2022-08-21T05:14:39.179Z,72.79
2022-08-21T05:17:09.948Z,72.51
2022-08-21T05:19:41.030Z,72.64
2022-08-21T05:22:11.166Z,73.34
2022-08-21T05:24:44.203Z,73.99
2022-08-21T05:27:17.806Z,73.94
2022-08-21T05:29:48.464Z,73.63
2022-08-21T05:32:20.641Z,73.52
2022-08-21T05:34:51.007Z,73.38
2022-08-21T05:37:21.096Z,73.56
2022-08-21T05:40:20.383Z,73.06
2022-08-21T05:42:44.161Z,72.82
2022-08-21T05:45:26.955Z,72.53
2022-08-21T05:48:18.095Z,72.90
2022-08-21T05:50:50.474Z,72.50
2022-08-21T05:53:22.160Z,72.33
2022-08-21T05:55:55.443Z,71.92
2022-08-21T05:58:26.192Z,72.97
2022-08-21T06:00:56.316Z,72.39
2022-08-21T06:03:28.872Z,72.29
2022-08-21T06:05:59.718Z,71.87
2022-08-21T06:08:30.553Z,71.87
2022-08-21T06:11:04.766Z,72.81
2022-08-21T06:13:34.890Z,73.31
2022-08-21T06:16:08.331Z,73.14
2022-08-21T06:18:40.615Z,73.45
2022-08-21T06:21:14.647Z,73.54
2022-08-21T06:23:44.859Z,73.30
2022-08-21T06:26:18.026Z,73.71
2022-08-21T06:28:48.161Z,73.79
2022-08-21T06:31:21.346Z,74.39
2022-08-21T06:33:51.677Z,74.38
2022-08-21T06:36:22.694Z,74.58
2022-08-21T06:38:52.877Z,74.67
2022-08-21T06:41:26.503Z,75.02
2022-08-21T06:43:58.192Z,74.82
2022-08-21T06:46:31.425Z,74.58
2022-08-21T06:49:02.003Z,73.88
2022-08-21T06:51:32.113Z,74.27
2022-08-21T06:54:04.906Z,73.91
2022-08-21T06:56:39.339Z,74.46
2022-08-21T06:59:12.964Z,74.38
2022-08-21T07:01:43.168Z,74.61
2022-08-21T07:04:13.344Z,73.58
2022-08-21T07:06:43.479Z,74.19
2022-08-21T07:09:13.775Z,73.12
2022-08-21T07:11:48.275Z,72.72
2022-08-21T07:14:20.193Z,73.13
2022-08-21T07:16:51.861Z,72.94
2022-08-21T07:19:22.645Z,72.57
2022-08-21T07:21:52.855Z,72.27
2022-08-21T07:24:23.107Z,71.57
2022-08-21T07:26:55.862Z,71.38
2022-08-21T07:29:26.091Z,71.38
2022-08-21T07:31:56.284Z,71.27
2022-08-21T07:34:26.437Z,72.58
2022-08-21T07:36:56.648Z,72.79
2022-08-21T07:39:28.691Z,73.75
2022-08-21T07:42:05.038Z,72.79
2022-08-21T07:44:38.088Z,73.56
2022-08-21T07:47:08.378Z,73.90
2022-08-21T07:49:38.710Z,72.93
2022-08-21T07:52:09.097Z,73.14
2022-08-21T07:54:39.272Z,72.33
2022-08-21T07:57:14.719Z,72.90
2022-08-21T07:59:48.964Z,73.38
2022-08-21T08:02:26.281Z,72.62
2022-08-21T08:04:56.689Z,72.86
2022-08-21T08:07:26.875Z,72.19
2022-08-21T08:09:57.092Z,72.05
2022-08-21T08:12:30.690Z,71.74
2022-08-21T08:15:00.753Z,72.26
2022-08-21T08:17:33.328Z,71.54
2022-08-21T08:20:04.623Z,71.27
2022-08-21T08:22:34.905Z,71.37
2022-08-21T08:25:09.300Z,69.79
2022-08-21T08:27:43.208Z,70.54
2022-08-21T08:30:16.702Z,69.66
2022-08-21T08:32:46.863Z,69.66
2022-08-21T08:35:23.628Z,69.97
2022-08-21T08:37:55.608Z,70.76
2022-08-21T08:40:35.296Z,70.44
2022-08-21T08:43:09.092Z,70.59
2022-08-21T08:45:43.554Z,70.88
2022-08-21T08:48:18.544Z,70.52
2022-08-21T08:50:53.420Z,70.62
2022-08-21T08:53:28.008Z,70.15
2022-08-21T08:55:58.160Z,69.64
2022-08-21T08:58:34.074Z,70.33
2022-08-21T09:01:04.551Z,69.79
2022-08-21T09:03:35.162Z,69.37
2022-08-21T09:06:20.120Z,69.32
2022-08-21T09:08:57.870Z,69.78
2022-08-21T09:11:37.023Z,68.27
2022-08-21T09:14:20.843Z,68.21
2022-08-21T09:16:55.531Z,67.34
2022-08-21T09:19:40.370Z,67.19
2022-08-21T09:22:19.354Z,66.73
2022-08-21T09:25:02.306Z,66.59
2022-08-21T09:27:34.492Z,65.79
2022-08-21T09:30:10.850Z,65.66
2022-08-21T09:32:42.981Z,65.19
2022-08-21T09:35:15.783Z,66.61
2022-08-21T09:37:52.855Z,66.06
2022-08-21T09:40:33.458Z,65.75
2022-08-21T09:43:06.041Z,65.75
2022-08-21T09:45:39.866Z,66.01
2022-08-21T09:48:14.957Z,64.58
2022-08-21T09:50:46.533Z,64.26
2022-08-21T09:53:22.117Z,64.38
2022-08-21T09:56:08.596Z,63.54
2022-08-21T09:58:40.870Z,63.45
2022-08-21T10:01:18.417Z,62.61
2022-08-21T10:03:49.058Z,62.27
2022-08-21T10:06:27.783Z,61.76
2022-08-21T10:09:12.407Z,61.48
2022-08-21T10:11:56.491Z,61.40
2022-08-21T10:14:45.916Z,59.76
2022-08-21T10:17:27.210Z,59.07
2022-08-21T10:20:05.410Z,59.04
2022-08-21T10:22:47.226Z,59.79
2022-08-21T10:25:23.220Z,59.56
2022-08-21T10:28:10.167Z,60.38
2022-08-21T10:30:53.646Z,60.82
2022-08-21T10:33:42.441Z,59.90
2022-08-21T10:36:17.613Z,59.65
2022-08-21T10:39:26.782Z,57.57
2022-08-21T10:42:21.844Z,57.29
2022-08-21T10:45:13.508Z,57.80
2022-08-21T10:47:52.907Z,57.47
2022-08-21T10:50:35.552Z,59.14
2022-08-21T10:53:20.146Z,58.80
2022-08-21T10:55:59.739Z,59.33
2022-08-21T10:58:33.181Z,59.35
2022-08-21T11:01:12.053Z,58.18
2022-08-21T11:03:46.433Z,58.17
2022-08-21T11:06:24.069Z,58.40
2022-08-21T11:09:00.843Z,58.59
2022-08-21T11:11:36.183Z,58.33
2022-08-21T11:14:15.576Z,59.86
2022-08-21T11:16:49.754Z,59.96
2022-08-21T11:19:29.117Z,58.29
2022-08-21T11:22:14.849Z,56.19
2022-08-21T11:24:52.552Z,56.66
2022-08-21T11:27:27.936Z,56.35
2022-08-21T11:30:01.378Z,54.38
2022-08-21T11:32:57.456Z,55.73
2022-08-21T11:35:38.625Z,56.11
2022-08-21T11:38:31.271Z,55.80
2022-08-21T11:41:27.015Z,55.62
2022-08-21T11:44:05.868Z,52.65
2022-08-21T11:46:44.675Z,53.11
2022-08-21T11:49:44.222Z,52.85
2022-08-21T11:52:22.792Z,53.35
2022-08-21T11:55:01.791Z,54.11
2022-08-21T11:57:38.018Z,53.88
2022-08-21T12:00:15.284Z,52.17
2022-08-21T12:02:49.454Z,52.77
2022-08-21T12:05:30.806Z,51.39
2022-08-21T12:08:07.614Z,51.32
2022-08-21T12:10:43.884Z,51.24
2022-08-21T12:13:40.365Z,51.70
2022-08-21T12:16:17.554Z,51.56
2022-08-21T12:18:48.113Z,51.31
2022-08-21T12:21:25.693Z,51.07
2022-08-21T12:24:07.294Z,50.93
2022-08-21T12:26:53.315Z,51.93
2022-08-21T12:29:31.887Z,51.10
2022-08-21T12:32:06.419Z,50.62
2022-08-21T12:34:41.054Z,49.33
2022-08-21T12:37:26.774Z,47.79
2022-08-21T12:39:59.022Z,48.16
2022-08-21T12:42:38.697Z,45.81
2022-08-21T12:45:20.994Z,45.97
2022-08-21T12:47:55.215Z,46.26
2022-08-21T12:50:37.069Z,45.87
2022-08-21T12:53:18.315Z,46.26
2022-08-21T12:55:51.082Z,47.74
2022-08-21T12:58:26.712Z,46.91
2022-08-21T13:01:00.427Z,47.38
2022-08-21T13:03:32.405Z,47.50
2022-08-21T13:06:03.117Z,46.64
2022-08-21T13:08:37.596Z,46.80
2022-08-21T13:11:15.076Z,46.98
2022-08-21T13:13:53.135Z,47.28
2022-08-21T13:16:32.270Z,46.86
2022-08-21T13:19:06.524Z,46.92
2022-08-21T13:21:42.720Z,47.30
2022-08-21T13:24:41.268Z,47.70
2022-08-21T13:27:21.881Z,47.82
2022-08-21T13:30:05.057Z,48.51
2022-08-21T13:32:38.894Z,47.88
2022-08-21T13:35:15.681Z,48.58
2022-08-21T13:37:47.227Z,48.61
2022-08-21T13:40:21.599Z,48.68
2022-08-21T13:42:52.691Z,48.01
2022-08-21T13:45:28.539Z,47.11
2022-08-21T13:47:59.203Z,47.24
2022-08-21T13:50:33.912Z,48.93
2022-08-21T13:53:06.753Z,48.69
2022-08-21T13:55:43.991Z,48.75
2022-08-21T13:58:15.417Z,48.36
2022-08-21T14:00:54.120Z,47.90
2022-08-21T14:03:33.879Z,48.77
2022-08-21T14:06:04.339Z,49.46
2022-08-21T14:08:38.417Z,49.49
2022-08-21T14:11:09.883Z,49.57
2022-08-21T14:13:44.160Z,49.36
2022-08-21T14:16:24.246Z,49.65
2022-08-21T14:19:01.708Z,49.11
2022-08-21T14:21:38.094Z,49.08
2022-08-21T14:24:12.440Z,48.82
2022-08-21T14:26:50.450Z,49.61
2022-08-21T14:29:23.305Z,49.90
2022-08-21T14:31:58.579Z,49.39
2022-08-21T14:34:35.810Z,49.82
2022-08-21T14:37:06.336Z,48.73
2022-08-21T14:39:36.746Z,49.10
2022-08-21T14:42:07.737Z,49.44
2022-08-21T14:44:37.887Z,49.79
2022-08-21T14:47:11.769Z,50.50
2022-08-21T14:49:42.398Z,50.61
2022-08-21T14:52:12.893Z,50.78
2022-08-21T14:54:43.036Z,50.47
2022-08-21T14:57:15.424Z,50.51
2022-08-21T14:59:45.617Z,50.08
2022-08-21T15:02:18.352Z,50.73
2022-08-21T15:04:48.451Z,50.65
2022-08-21T15:07:18.697Z,50.39
2022-08-21T15:09:48.853Z,49.86
2022-08-21T15:12:19.380Z,50.28
2022-08-21T15:14:49.848Z,49.93
2022-08-21T15:17:22.929Z,49.76
2022-08-21T15:19:53.160Z,49.91
2022-08-21T15:22:28.023Z,50.18
2022-08-21T15:24:58.716Z,50.86
2022-08-21T15:27:28.908Z,51.50
2022-08-21T15:29:59.583Z,51.83
2022-08-21T15:32:32.681Z,52.73
2022-08-21T15:35:03.366Z,52.42
2022-08-21T15:37:33.721Z,53.44
2022-08-21T15:40:04.274Z,53.60
2022-08-21T15:42:35.105Z,53.15
2022-08-21T15:45:06.391Z,52.93
2022-08-21T15:47:41.213Z,53.55
2022-08-21T15:50:13.841Z,53.33
2022-08-21T15:52:44.106Z,54.11
2022-08-21T15:55:15.410Z,54.69
2022-08-21T15:57:57.331Z,54.00
2022-08-21T16:00:29.320Z,54.18
2022-08-21T16:03:03.182Z,54.68
2022-08-21T16:05:33.442Z,55.42
2022-08-21T16:08:03.728Z,55.40
2022-08-21T16:10:33.949Z,54.98
2022-08-21T16:13:07.975Z,55.22
2022-08-21T16:15:38.311Z,55.72
2022-08-21T16:18:11.203Z,55.25
2022-08-21T16:20:41.395Z,55.30
2022-08-21T16:23:11.695Z,55.10
2022-08-21T16:25:43.415Z,55.68
2022-08-21T16:28:17.590Z,55.92
2022-08-21T16:30:50.655Z,55.47
2022-08-21T16:33:28.617Z,56.06
2022-08-21T16:36:00.398Z,56.08
2022-08-21T16:38:32.699Z,56.28
2022-08-21T16:41:05.917Z,56.22
2022-08-21T16:43:37.377Z,56.11
2022-08-21T16:46:08.345Z,56.24
2022-08-21T16:48:41.321Z,57.17
2022-08-21T16:51:11.445Z,58.25
2022-08-21T16:53:41.694Z,58.81
2022-08-21T16:56:13.410Z,58.99
2022-08-21T16:58:47.659Z,59.16
2022-08-21T17:01:20.793Z,60.01
2022-08-21T17:03:56.195Z,61.36
2022-08-21T17:06:28.870Z,61.52
2022-08-21T17:08:59.976Z,61.91
2022-08-21T17:11:38.068Z,62.39
2022-08-21T17:14:11.249Z,63.59
2022-08-21T17:16:42.747Z,63.84
2022-08-21T17:19:16.290Z,63.78
2022-08-21T17:21:46.594Z,63.81
2022-08-21T17:24:17.757Z,63.71
2022-08-21T17:26:48.514Z,63.23
2022-08-21T17:29:19.075Z,62.31
2022-08-21T17:31:51.633Z,62.29
2022-08-21T17:34:31.084Z,61.84
2022-08-21T17:37:01.971Z,62.16
2022-08-21T17:39:33.356Z,62.04
2022-08-21T17:42:11.320Z,62.72
2022-08-21T17:44:44.474Z,63.09
2022-08-21T17:47:18.033Z,62.87
2022-08-21T17:49:51.127Z,63.13
2022-08-21T17:52:21.343Z,62.88
2022-08-21T17:54:51.525Z,62.93
2022-08-21T17:57:28.713Z,63.29
2022-08-21T18:00:01.690Z,63.44
2022-08-21T18:02:35.987Z,64.05
2022-08-21T18:05:14.775Z,64.30
2022-08-21T18:07:45.346Z,64.55
2022-08-21T18:10:15.786Z,64.05
2022-08-21T18:12:47.479Z,64.40
2022-08-21T18:15:20.044Z,64.90
2022-08-21T18:17:52.633Z,65.34
2022-08-21T18:20:28.877Z,65.07
2022-08-21T18:23:00.056Z,65.08
2022-08-21T18:25:30.565Z,65.36
2022-08-21T18:28:02.491Z,65.47
2022-08-21T18:30:34.604Z,65.43
2022-08-21T18:33:25.748Z,65.46
2022-08-21T18:36:18.351Z,65.73
2022-08-21T18:39:35.040Z,65.31
2022-08-21T18:42:25.575Z,65.43
2022-08-21T18:45:17.662Z,66.22
2022-08-21T18:48:12.137Z,66.67
2022-08-21T18:50:45.700Z,66.62
2022-08-21T18:53:27.576Z,67.38
2022-08-21T18:58:51.053Z,68.47
2022-08-21T19:01:21.131Z,69.33
2022-08-21T19:03:51.390Z,69.75
2022-08-21T19:06:21.517Z,70.75
2022-08-21T19:08:56.002Z,70.80
2022-08-21T19:11:27.958Z,69.87
2022-08-21T19:14:01.606Z,69.49
2022-08-21T19:16:34.018Z,68.39
2022-08-21T19:19:05.239Z,67.83
2022-08-21T19:21:35.518Z,68.27
2022-08-21T19:24:17.376Z,68.09
2022-08-21T19:27:00.407Z,68.91
2022-08-21T19:29:35.103Z,69.11
2022-08-21T19:32:08.037Z,69.83
2022-08-21T19:34:41.045Z,70.58
2022-08-21T19:37:16.371Z,71.29
2022-08-21T19:39:50.725Z,70.89
2022-08-21T19:42:22.282Z,71.33
2022-08-21T19:44:59.147Z,71.79
2022-08-21T19:47:31.548Z,72.57
2022-08-21T19:50:05.108Z,72.96
2022-08-21T19:52:51.419Z,73.21
2022-08-21T19:55:25.142Z,73.17
2022-08-21T19:57:56.102Z,73.95
2022-08-21T20:00:28.897Z,74.23
2022-08-21T20:02:59.155Z,74.87
2022-08-21T20:05:39.545Z,75.12
2022-08-21T20:08:11.665Z,74.81
2022-08-21T20:10:58.096Z,75.12
2022-08-21T20:13:32.559Z,75.15
2022-08-21T20:16:03.479Z,75.77
2022-08-21T20:18:36.623Z,75.68
2022-08-21T20:21:08.194Z,75.84
2022-08-21T20:23:48.776Z,75.91
2022-08-21T20:26:22.422Z,76.31
2022-08-21T20:28:53.355Z,76.67
2022-08-21T20:31:25.875Z,76.29
2022-08-21T20:33:58.089Z,76.55
2022-08-21T20:36:28.724Z,76.28
2022-08-21T20:38:58.819Z,76.33
2022-08-21T20:41:31.582Z,76.01
2022-08-21T20:44:04.433Z,76.08
2022-08-21T20:46:35.499Z,76.10
2022-08-21T20:49:08.303Z,76.33
2022-08-21T20:51:43.257Z,76.10
2022-08-21T20:54:23.763Z,76.33
2022-08-21T20:57:01.127Z,76.36
2022-08-21T20:59:44.393Z,76.06
2022-08-21T21:02:27.135Z,76.36
2022-08-21T21:05:05.371Z,76.79
2022-08-21T21:07:41.260Z,76.56
2022-08-21T21:10:18.051Z,76.52
2022-08-21T21:12:54.554Z,76.55
2022-08-21T21:15:30.983Z,75.88
2022-08-21T21:18:08.135Z,75.53
2022-08-21T21:20:48.797Z,75.67
2022-08-21T21:23:25.547Z,75.47
2022-08-21T21:26:04.032Z,75.54
2022-08-21T21:28:48.703Z,75.27
2022-08-21T21:31:21.455Z,75.31
2022-08-21T21:33:52.007Z,75.35
2022-08-21T21:36:31.807Z,75.51
2022-08-21T21:39:12.259Z,75.29
2022-08-21T21:44:56.776Z,75.45
2022-08-21T21:47:42.458Z,75.30
2022-08-21T21:50:24.357Z,74.66
2022-08-21T21:53:12.307Z,74.63
2022-08-21T21:56:11.790Z,74.80
2022-08-21T21:59:13.881Z,74.61
2022-08-21T22:01:52.895Z,74.62
2022-08-21T22:04:31.255Z,74.87
2022-08-21T22:07:08.890Z,74.36
2022-08-21T22:09:47.055Z,74.55
2022-08-21T22:12:32.957Z,74.60
2022-08-21T22:15:03.101Z,74.91
2022-08-21T22:17:47.894Z,74.93
2022-08-21T22:20:23.112Z,75.02
2022-08-21T22:22:58.290Z,74.64
2022-08-21T22:25:32.803Z,74.92
2022-08-21T22:28:07.239Z,74.75
2022-08-21T22:30:45.358Z,74.70
2022-08-21T22:33:21.572Z,74.79
2022-08-21T22:35:54.229Z,74.82
2022-08-21T22:38:34.896Z,74.88
2022-08-21T22:41:17.587Z,74.62
2022-08-21T22:43:56.185Z,75.11
2022-08-21T22:46:36.697Z,74.41
2022-08-21T22:49:15.729Z,74.40
2022-08-21T22:51:49.454Z,74.59
2022-08-21T22:54:26.674Z,74.98
2022-08-21T22:57:03.075Z,75.16
2022-08-21T22:59:35.995Z,75.51
2022-08-21T23:02:12.420Z,75.55
2022-08-21T23:04:53.883Z,75.06
2022-08-21T23:07:49.775Z,75.17
2022-08-21T23:10:28.538Z,75.86
2022-08-21T23:13:06.227Z,75.71
2022-08-21T23:18:50.493Z,75.32
2022-08-21T23:21:31.361Z,75.82
2022-08-21T23:24:24.581Z,75.43
2022-08-21T23:27:08.125Z,75.27
2022-08-21T23:29:49.600Z,75.78
2022-08-21T23:32:47.014Z,75.13
2022-08-21T23:35:23.908Z,75.32
2022-08-21T23:38:09.435Z,75.26
2022-08-21T23:40:50.989Z,75.41
2022-08-21T23:43:38.792Z,75.15
2022-08-21T23:46:34.552Z,75.46
2022-08-21T23:49:24.310Z,75.62
2022-08-21T23:52:05.793Z,75.79
2022-08-21T23:54:49.070Z,75.47
2022-08-21T23:57:33.302Z,75.43
